AirNav   Air Wisconsin Up To $57,000 Bonus
 
 996 users online  

5TS3 Knapp Pecan Orchard Airpark
Dawson, Texas, USA

GOING TO DAWSON?


FAA INFORMATION EFFECTIVE 07 NOVEMBER 2019

Location

FAA Identifier: 5TS3
Lat/Long: 31-58-27.0000N 096-40-42.0000W
31-58.450000N 096-40.700000W
31.9741667,-96.6783333
(estimated)
Elevation: 450 ft. / 137 m (estimated)
Variation: 06E (1985)
From city: 6 miles N of DAWSON, TX
Time zone: UTC -6 (UTC -5 during Daylight Saving Time)
Zip code: 75102

Airport Operations

Airport use: Private use. Permission required prior to landing
Activation date: 08/1985
Control tower: no
ARTCC: FORT WORTH CENTER
FSS: FORT WORTH FLIGHT SERVICE STATION
Attendance: UNATNDD
Wind indicator: no
Segmented circle: no

Airport Communications

WX ASOS at CRS (14 nm E): 120.675 (903-872-9321)

Nearby radio navigation aids

VOR radial/distance  VOR name  Freq  Var
GNLr339/24.5GROESBECK VOR/DME108.8005E
CQYr236/26.6CEDAR CREEK VORTAC114.8006E
ACTr049/35.5WACO VORTAC115.3009E

 
NDB name  Hdg/Dist  Freq  Var  ID
POWELL241/13.934406ECGQ -.-. --. --.-
CORSICANA251/14.839606ECRS -.-. .-. ...
MEXIA333/21.832904ELXY .-.. -..- -.--
PYRAMID279/25.441806EPYF .--. -.-- ..-.
ROBINSON032/34.640003EROB .-. --- -...
CROSSROADS254/37.121508ECSZ -.-. ... --..

Airport Services

Runway Information

Runway 14/32

Dimensions: 2500 x 50 ft. / 762 x 15 m
Surface: turf
RUNWAY 14  RUNWAY 32
Traffic pattern: leftleft

Airport Ownership and Management from official FAA records

Ownership: Privately-owned
Owner: G. A. KNAPP
1530 NWCR 3040
PURDON, TX 76679
Phone 254-578-1030
Manager: G. A. KNAPP
1530 NWCR 3040
PURDON, TX 76679
Phone (254) 578-1030

Airport Operational Statistics

Aircraft based on the field: 2
Single engine airplanes: 2
    

Additional Remarks

FOR CD CTC FORT WORTH ARTCC AT 817-858-7584.

Instrument Procedures

There are no published instrument procedures at 5TS3.

Some nearby airports with instrument procedures:

KCRS - C David Campbell Field-Corsicana Municipal Airport (14 nm E)
F41 - Ennis Municipal Airport (21 nm N)
KLXY - Mexia-Limestone County Airport (22 nm SE)
KINJ - Hillsboro Municipal Airport (22 nm W)
KCNW - TSTC Waco Airport (29 nm SW)
 
Loc | Ops | Rwys | IFR | FBO | Links
Com | Nav | Svcs | Stats | Notes
Area around 5TS3 (Knapp Pecan Orchard Airpark)
 
Road maps at: MapQuest Bing Google
 
Aerial photo
No photo
 
Sectional chart

 
Airport distance calculator
Flying to Knapp Pecan Orchard Airpark? Find the distance to fly.

From to 5TS3

Sunrise and sunset
Times for 21-Nov-2019
 Local
(UTC-6)
 Zulu
(UTC)
Morning civil twilight06:3612:36
Sunrise07:0213:02
Sunset17:2423:24
Evening civil twilight17:5023:50

Current date and time
Zulu (UTC)  22-Nov-2019 02:23:11
Local (UTC-6)  21-Nov-2019 20:23:11
 
METAR
KCRS 
15nm E 
220153Z AUTO 15008KT 6SM BR FEW006 SCT049 OVC060 20/19 A2995 RMK AO2 RAE53 SLP140 P0004 T02000194
KLXY 
22nm SE 
220155Z AUTO 16003KT 7SM RA SCT020 BKN027 OVC075 21/21 A2995 RMK AO2 LTG DSNT NE P0001 T02070205
KINJ 
22nm W 
220155Z AUTO 14010KT 10SM OVC075 22/21 A2993 RMK AO2 T02150210
KCNW 
28nm SW 
220155Z 15007KT 10SM OVC070 22/19 A2994
TAF
KACT 
36nm SW 
212100Z 2121/2218 18013KT P6SM VCSH SCT025 BKN035 FM220700 34010KT P6SM -RA OVC009 FM221500 35011KT P6SM -SHRA VCTS OVC015CB
NOTAMs
Click for the latest NOTAMs
NOTAMs are issued by the DoD/FAA and will open in a separate window not controlled by AirNav.

 

 
 

Would you like to see your business listed on this page?

 If your business provides an interesting product or service to pilots, flight crews, aircraft, or users of the Knapp Pecan Orchard Airpark, you should consider listing it here.  To start the listing process, click on the button below
 
Add a business
 

Other Pages about Knapp Pecan Orchard Airpark

Update a link
 
Copyright © AirNav, LLC. All rights reserved. Privacy Policy  Contact